Time;durP1;ratioP1;P1;durP2;ratioP2;P2;SDS_P1;SDS_P2;PMS_P1;PMS_P2;Temp;Humidity;BMP_temperature;BMP_pressure;BME280_temperature;BME280_humidity;BME280_pressure;Samples;Min_cycle;Max_cycle;Signal;HPM_P1;HPM_P2
2022/03/08 00:02:17;;;;;;;4.70;3.42;;;0.00;99.90;;;;;;6134575;23;20048;-84
2022/03/08 00:04:43;;;;;;;4.18;2.58;;;0.60;99.90;;;;;;6115343;23;20028;-85
2022/03/08 00:07:09;;;;;;;3.63;3.03;;;0.10;99.90;;;;;;6135904;23;20013;-85
2022/03/08 00:09:35;;;;;;;6.85;3.20;;;-0.80;99.90;;;;;;6159006;23;20025;-85
2022/03/08 00:12:02;;;;;;;3.80;2.42;;;-0.90;99.90;;;;;;6134831;23;20071;-86
2022/03/08 00:14:28;;;;;;;3.58;2.75;;;-0.90;99.90;;;;;;6134797;23;20063;-85
2022/03/08 00:16:55;;;;;;;7.05;3.15;;;-1.00;99.90;;;;;;6183217;23;20034;-85
2022/03/08 00:19:21;;;;;;;4.57;3.00;;;-1.00;99.90;;;;;;6183304;23;20416;-85
2022/03/08 00:21:47;;;;;;;4.97;3.03;;;-1.10;99.90;;;;;;6134444;23;20080;-85
2022/03/08 00:24:12;;;;;;;4.80;3.08;;;-1.20;99.90;;;;;;6110069;23;20384;-86
2022/03/08 00:26:40;;;;;;;5.35;3.40;;;-1.20;99.90;;;;;;6183701;23;20052;-85
2022/03/08 00:29:05;;;;;;;5.20;3.13;;;-1.10;99.90;;;;;;6133743;23;20100;-85
2022/03/08 00:31:31;;;;;;;5.40;2.85;;;-1.10;99.90;;;;;;6159322;23;20076;-86
2022/03/08 00:33:57;;;;;;;5.32;3.35;;;-0.30;99.90;;;;;;6142443;23;20021;-84
2022/03/08 00:36:23;;;;;;;;;;;-1.10;99.90;;;;;;6192279;23;20021;-85
2022/03/08 00:38:49;;;;;;;6.03;3.13;;;-0.80;99.90;;;;;;6157433;23;19967;-85
2022/03/08 00:41:14;;;;;;;;;;;-1.20;99.90;;;;;;6157554;23;20017;-86
2022/03/08 00:43:40;;;;;;;5.80;3.42;;;-1.30;99.90;;;;;;6157041;23;19919;-85
2022/03/08 00:46:06;;;;;;;6.43;3.33;;;-0.50;99.90;;;;;;6157597;23;20099;-85
2022/03/08 00:48:31;;;;;;;6.82;4.00;;;0.30;99.90;;;;;;6156120;23;20049;-84
2022/03/08 00:50:57;;;;;;;5.13;3.42;;;-1.50;99.90;;;;;;6156871;23;20076;-85
2022/03/08 00:53:23;;;;;;;4.43;3.55;;;-1.50;99.90;;;;;;6132164;23;20421;-84
2022/03/08 00:55:48;;;;;;;4.13;3.20;;;-0.80;99.90;;;;;;6133260;23;20052;-85
2022/03/08 00:58:14;;;;;;;5.65;4.07;;;-1.40;99.90;;;;;;6156591;23;20025;-85
2022/03/08 01:00:40;;;;;;;;;;;-1.20;99.90;;;;;;6182090;23;20466;-87
2022/03/08 01:03:06;;;;;;;3.78;3.15;;;-0.60;99.90;;;;;;6205696;23;20233;-85
2022/03/08 01:05:32;;;;;;;3.80;3.00;;;-1.70;99.90;;;;;;6181755;23;20013;-85
2022/03/08 01:07:59;;;;;;;3.40;2.92;;;-1.80;99.90;;;;;;6156757;23;20111;-85
2022/03/08 01:10:25;;;;;;;4.45;3.10;;;-1.80;99.90;;;;;;6181933;23;20039;-84
2022/03/08 01:12:53;;;;;;;4.25;3.10;;;-0.70;99.90;;;;;;6132396;23;20021;-85
2022/03/08 01:15:19;;;;;;;4.20;3.13;;;-1.50;99.90;;;;;;6156925;23;20021;-84
2022/03/08 01:17:47;;;;;;;6.10;4.18;;;-2.00;99.90;;;;;;6182243;23;20029;-87
2022/03/08 01:20:14;;;;;;;4.43;3.25;;;-2.00;99.90;;;;;;6182356;23;20013;-83
2022/03/08 01:22:40;;;;;;;4.47;2.92;;;-2.10;99.90;;;;;;6164015;23;20017;-86
2022/03/08 01:25:06;;;;;;;;;;;-2.10;99.90;;;;;;6158046;23;20044;-84
2022/03/08 01:27:32;;;;;;;4.13;2.97;;;-2.10;99.90;;;;;;6182558;23;19967;-85
2022/03/08 01:29:58;;;;;;;;;;;-1.90;99.90;;;;;;6182667;23;20013;-85
2022/03/08 01:32:23;;;;;;;8.88;3.45;;;-2.20;99.90;;;;;;6156717;23;19912;-85
2022/03/08 01:34:49;;;;;;;3.97;3.42;;;-2.20;99.90;;;;;;6155721;23;20133;-86
2022/03/08 01:37:15;;;;;;;4.32;3.33;;;-2.20;99.90;;;;;;6132148;23;20021;-84
2022/03/08 01:39:41;;;;;;;4.55;3.25;;;-2.30;99.90;;;;;;6181739;23;20104;-84
2022/03/08 01:42:11;;;;;;;7.55;4.47;;;-0.50;99.90;;;;;;6132171;23;20017;-86
2022/03/08 01:44:40;;;;;;;7.97;3.95;;;-2.30;99.90;;;;;;6158719;23;20020;-86
2022/03/08 01:47:06;;;;;;;5.13;3.10;;;-2.30;99.90;;;;;;6184291;23;20021;-86
2022/03/08 01:49:32;;;;;;;;;;;-2.20;99.90;;;;;;6183741;23;20083;-87
2022/03/08 01:51:57;;;;;;;4.72;3.58;;;-2.20;99.90;;;;;;6159077;23;19919;-84
2022/03/08 01:54:23;;;;;;;7.13;3.30;;;-2.10;99.90;;;;;;6158939;23;20025;-86
2022/03/08 01:56:49;;;;;;;7.53;3.75;;;-2.10;99.90;;;;;;6139299;23;20071;-84
2022/03/08 01:59:15;;;;;;;;;;;-2.10;99.90;;;;;;6112839;23;20156;-88
2022/03/08 02:01:41;;;;;;;4.57;3.50;;;-2.10;99.90;;;;;;6161146;23;20006;-85
2022/03/08 02:04:06;;;;;;;6.50;4.63;;;-2.10;99.90;;;;;;6181237;23;20052;-86
2022/03/08 02:06:32;;;;;;;6.25;4.45;;;-2.20;99.90;;;;;;6183543;23;20343;-89
2022/03/08 02:08:58;;;;;;;6.72;4.78;;;-2.20;99.90;;;;;;6183492;23;20092;-87
2022/03/08 02:11:24;;;;;;;;;;;-2.20;99.90;;;;;;6183925;23;20059;-85
2022/03/08 02:13:49;;;;;;;4.97;3.97;;;-2.20;99.90;;;;;;6213034;23;19952;-84
2022/03/08 02:16:15;;;;;;;;;;;-2.30;99.90;;;;;;6162236;23;20036;-86
2022/03/08 02:18:41;;;;;;;4.70;3.50;;;-2.30;99.90;;;;;;6158343;23;19955;-88
2022/03/08 02:21:08;;;;;;;;;;;-2.30;99.90;;;;;;6159336;23;20017;-85
2022/03/08 02:23:34;;;;;;;4.97;3.83;;;-2.40;99.90;;;;;;6159455;23;19912;-87
2022/03/08 02:26:03;;;;;;;10.48;3.88;;;-2.40;99.90;;;;;;6187115;23;20017;-84
2022/03/08 02:28:29;;;;;;;9.43;3.95;;;-2.40;99.90;;;;;;6183820;23;20023;-84
2022/03/08 02:30:55;;;;;;;;;;;-2.50;99.90;;;;;;6159389;23;20403;-85
2022/03/08 02:33:21;;;;;;;5.55;3.90;;;-2.50;99.90;;;;;;6157073;23;19919;-84
2022/03/08 02:35:47;;;;;;;;;;;-2.60;99.90;;;;;;6184080;23;20017;-88
2022/03/08 02:38:12;;;;;;;6.45;3.95;;;-2.60;99.90;;;;;;6207860;23;19923;-85
2022/03/08 02:40:39;;;;;;;;;;;-2.60;99.90;;;;;;6158729;23;20360;-85
2022/03/08 02:43:07;;;;;;;7.13;4.35;;;-2.70;99.90;;;;;;6212533;23;19923;-85
2022/03/08 02:45:33;;;;;;;8.00;4.72;;;-2.70;99.90;;;;;;6187368;23;20017;-85
2022/03/08 02:47:59;;;;;;;7.47;5.57;;;-2.60;99.90;;;;;;6183124;23;20448;-84
2022/03/08 02:50:25;;;;;;;4.60;3.90;;;-2.60;99.90;;;;;;6156920;23;20199;-87
2022/03/08 02:52:52;;;;;;;;;;;-2.70;99.90;;;;;;6158438;23;20393;-87
2022/03/08 02:55:21;;;;;;;5.65;4.43;;;-2.60;99.90;;;;;;6183273;23;19916;-85
2022/03/08 02:57:47;;;;;;;7.85;5.25;;;-2.70;99.90;;;;;;6157950;23;20052;-86
2022/03/08 03:00:14;;;;;;;;;;;-2.70;99.90;;;;;;6157921;23;20016;-85
2022/03/08 03:02:40;;;;;;;4.32;3.95;;;-2.70;99.90;;;;;;6182564;23;19948;-85
2022/03/08 03:05:06;;;;;;;;;;;-2.70;99.90;;;;;;6181765;23;20040;-85
2022/03/08 03:07:32;;;;;;;8.93;5.43;;;-2.70;99.90;;;;;;6208153;23;19916;-85
2022/03/08 03:09:58;;;;;;;4.78;3.97;;;-2.70;99.90;;;;;;6133267;23;20095;-84
2022/03/08 03:12:24;;;;;;;;;;;-2.70;99.90;;;;;;6133797;23;20387;-86
2022/03/08 03:14:49;;;;;;;6.85;4.90;;;-2.80;99.90;;;;;;6182293;23;19919;-85
2022/03/08 03:17:17;;;;;;;;;;;-2.80;99.90;;;;;;6182839;23;20052;-85
2022/03/08 03:19:43;;;;;;;5.85;4.32;;;-2.80;99.90;;;;;;6157439;23;20333;-85
2022/03/08 03:22:09;;;;;;;7.93;4.97;;;-2.90;99.90;;;;;;6157331;23;20445;-87
2022/03/08 03:24:35;;;;;;;;;;;-2.90;99.90;;;;;;6183097;23;20096;-86
2022/03/08 03:27:01;;;;;;;6.07;4.32;;;-2.90;99.90;;;;;;6182468;23;19947;-86
2022/03/08 03:29:26;;;;;;;;;;;-2.90;99.90;;;;;;6182715;23;20032;-86
2022/03/08 03:31:52;;;;;;;4.35;3.45;;;-3.00;99.90;;;;;;6182343;23;20372;-85
2022/03/08 03:34:17;;;;;;;;;;;-3.00;99.90;;;;;;6157090;23;20016;-85
2022/03/08 03:36:43;;;;;;;7.93;4.90;;;-3.00;99.90;;;;;;6182200;23;20275;-86
2022/03/08 03:39:09;;;;;;;6.50;4.97;;;-2.80;99.90;;;;;;6157740;23;20021;-85
2022/03/08 03:41:35;;;;;;;;;;;-3.10;99.90;;;;;;6133878;23;20440;-87
2022/03/08 03:44:01;;;;;;;4.47;3.72;;;-3.10;99.90;;;;;;6157393;23;19912;-85
2022/03/08 03:46:26;;;;;;;;;;;-3.10;99.90;;;;;;6182147;23;20020;-84
2022/03/08 03:48:52;;;;;;;8.52;5.10;;;-3.10;99.90;;;;;;6181125;23;20008;-84
2022/03/08 03:51:18;;;;;;;;;;;-2.30;99.90;;;;;;6157586;23;20092;-84
2022/03/08 03:53:44;;;;;;;6.28;4.72;;;-2.40;99.90;;;;;;6157307;23;19923;-84
2022/03/08 03:56:10;;;;;;;5.75;4.30;;;-3.20;99.90;;;;;;6156448;23;20023;-86
2022/03/08 03:58:36;;;;;;;5.90;4.80;;;-3.30;99.90;;;;;;6157663;23;20380;-86
2022/03/08 04:01:02;;;;;;;;;;;-3.30;99.90;;;;;;6157609;23;20008;-84
2022/03/08 04:03:28;;;;;;;6.65;5.05;;;-3.30;99.90;;;;;;6205848;23;19916;-84
2022/03/08 04:05:53;;;;;;;;;;;-3.30;99.90;;;;;;6157596;23;20448;-85
2022/03/08 04:08:20;;;;;;;8.70;5.68;;;-3.30;99.90;;;;;;6157045;23;20039;-84
2022/03/08 04:10:50;;;;;;;6.50;5.72;;;-3.30;99.90;;;;;;6181536;23;20024;-84
2022/03/08 04:13:17;;;;;;;8.18;6.32;;;-3.30;99.90;;;;;;6181347;23;20405;-84
2022/03/08 04:15:44;;;;;;;10.50;6.30;;;-3.30;99.90;;;;;;6181874;23;20052;-84
2022/03/08 04:18:10;;;;;;;7.65;4.78;;;-2.90;99.90;;;;;;6155082;23;20384;-84
2022/03/08 04:20:36;;;;;;;;;;;-3.20;99.90;;;;;;6157066;23;20021;-84
2022/03/08 04:23:02;;;;;;;7.20;5.70;;;-3.20;99.90;;;;;;6157103;23;19919;-84
2022/03/08 04:25:28;;;;;;;7.35;5.70;;;-3.30;99.90;;;;;;6181296;23;20017;-85
2022/03/08 04:27:53;;;;;;;;;;;-3.30;99.90;;;;;;6157548;23;20696;-84
2022/03/08 04:30:19;;;;;;;7.05;6.13;;;-3.30;99.90;;;;;;6181523;23;19916;-85
2022/03/08 04:32:45;;;;;;;;;;;-3.30;99.90;;;;;;6158039;23;20079;-85
2022/03/08 04:35:11;;;;;;;9.23;5.30;;;-3.30;99.90;;;;;;6205687;23;19923;-85
2022/03/08 04:37:37;;;;;;;13.35;6.82;;;-3.30;99.90;;;;;;6132701;23;20028;-84
2022/03/08 04:40:07;;;;;;;14.80;7.32;;;-3.20;99.90;;;;;;6156818;23;20020;-84
2022/03/08 04:42:33;;;;;;;13.15;7.70;;;-3.30;99.90;;;;;;6156595;23;20023;-84
2022/03/08 04:44:59;;;;;;;11.98;7.60;;;-3.30;99.90;;;;;;6156846;23;20526;-84
2022/03/08 04:47:24;;;;;;;;;;;-3.30;99.90;;;;;;6132768;23;20092;-84
2022/03/08 04:49:50;;;;;;;7.50;6.68;;;-3.30;99.90;;;;;;6156094;23;19912;-84
2022/03/08 04:52:16;;;;;;;;;;;-3.30;99.90;;;;;;6157325;23;20052;-85
2022/03/08 04:54:41;;;;;;;7.95;6.18;;;-3.30;99.90;;;;;;6157209;23;19912;-85
2022/03/08 04:57:07;;;;;;;;;;;-3.30;99.90;;;;;;6182434;23;20096;-85
2022/03/08 04:59:33;;;;;;;14.38;6.80;;;-3.30;99.90;;;;;;6156287;23;19970;-87
2022/03/08 05:01:58;;;;;;;;;;;-3.40;99.90;;;;;;6181656;23;20456;-86
2022/03/08 05:04:24;;;;;;;11.50;6.85;;;-3.40;99.90;;;;;;6180092;23;19971;-83
2022/03/08 05:06:50;;;;;;;;;;;-3.40;99.90;;;;;;6157174;23;20028;-85
2022/03/08 05:09:16;;;;;;;7.80;6.15;;;-3.40;99.90;;;;;;6180511;23;20010;-84
2022/03/08 05:11:42;;;;;;;12.63;6.18;;;-3.50;99.90;;;;;;6181415;23;20048;-85
2022/03/08 05:14:08;;;;;;;;;;;-3.00;99.90;;;;;;6181839;23;20048;-85
2022/03/08 05:16:34;;;;;;;9.13;6.80;;;-3.60;99.90;;;;;;6183702;23;19916;-84
2022/03/08 05:18:59;;;;;;;;;;;-3.50;99.90;;;;;;6161122;23;20096;-84
2022/03/08 05:21:25;;;;;;;9.73;7.10;;;-3.50;99.90;;;;;;6158758;23;20341;-84
2022/03/08 05:23:51;;;;;;;;;;;-3.60;99.90;;;;;;6167186;23;20013;-83
2022/03/08 05:26:16;;;;;;;6.38;5.22;;;-3.50;99.90;;;;;;6193463;23;19912;-84
2022/03/08 05:28:46;;;;;;;;;;;-3.50;99.90;;;;;;6160302;23;20028;-84
2022/03/08 05:31:13;;;;;;;11.35;7.28;;;-3.50;99.90;;;;;;6208501;23;19913;-85
2022/03/08 05:33:39;;;;;;;9.35;6.85;;;-4.40;99.90;;;;;;6156832;23;20028;-85
2022/03/08 05:36:05;;;;;;;14.77;7.63;;;-3.60;99.90;;;;;;6159232;23;20024;-85
2022/03/08 05:38:30;;;;;;;;;;;-3.60;99.90;;;;;;6159506;23;20021;-86
2022/03/08 05:40:56;;;;;;;9.20;6.85;;;-3.60;99.90;;;;;;6159542;23;19912;-84
2022/03/08 05:43:22;;;;;;;;;;;-3.60;99.90;;;;;;6158555;23;20013;-85
2022/03/08 05:45:48;;;;;;;10.27;7.40;;;-3.50;99.90;;;;;;6209666;23;20320;-85
2022/03/08 05:48:13;;;;;;;;;;;-3.50;99.90;;;;;;6133315;23;20025;-87
2022/03/08 05:50:39;;;;;;;8.23;6.28;;;-3.50;99.90;;;;;;6158042;23;19979;-86
2022/03/08 05:53:05;;;;;;;;;;;-3.50;99.90;;;;;;6157023;23;20025;-85
2022/03/08 05:55:30;;;;;;;8.57;6.32;;;-3.40;99.90;;;;;;6156049;23;19919;-88
2022/03/08 05:57:56;;;;;;;;;;;-3.40;99.90;;;;;;6131541;23;20069;-86
2022/03/08 06:00:22;;;;;;;9.55;7.30;;;-3.40;99.90;;;;;;6155167;23;19919;-85
2022/03/08 06:02:47;;;;;;;;;;;-3.40;99.90;;;;;;6156874;23;20063;-87
2022/03/08 06:05:13;;;;;;;7.82;6.95;;;-3.30;99.90;;;;;;6154792;23;19916;-90
2022/03/08 06:07:39;;;;;;;;;;;-3.30;99.90;;;;;;6180959;23;20437;-87
2022/03/08 06:10:08;;;;;;;9.05;7.50;;;-3.30;99.90;;;;;;6156286;23;19916;-87
2022/03/08 06:12:35;;;;;;;13.40;6.88;;;-3.30;99.90;;;;;;6184139;23;20021;-87
2022/03/08 06:15:01;;;;;;;12.15;7.35;;;-3.30;99.90;;;;;;6161874;23;20342;-87
2022/03/08 06:17:27;;;;;;;;;;;-3.30;99.90;;;;;;6156716;23;20047;-87
2022/03/08 06:19:52;;;;;;;16.98;8.00;;;-3.30;99.90;;;;;;6180172;23;20272;-86
2022/03/08 06:22:18;;;;;;;;;;;-2.50;99.90;;;;;;6183865;23;20024;-86
2022/03/08 06:24:44;;;;;;;8.02;7.05;;;-3.20;99.90;;;;;;6157776;23;19912;-87
2022/03/08 06:27:10;;;;;;;;;;;-1.80;99.90;;;;;;6133207;23;20028;-86
2022/03/08 06:29:36;;;;;;;12.02;8.25;;;-3.10;99.90;;;;;;6204338;23;20335;-86
2022/03/08 06:32:02;;;;;;;;;;;-3.10;99.90;;;;;;6181638;23;20021;-87
2022/03/08 06:34:28;;;;;;;8.35;7.38;;;-3.10;99.90;;;;;;6155245;23;19982;-86
2022/03/08 06:36:53;;;;;;;;;;;-3.10;99.90;;;;;;6181691;23;20449;-87
2022/03/08 06:39:19;;;;;;;7.80;5.97;;;-3.00;99.90;;;;;;6131266;23;19916;-86
2022/03/08 06:41:45;;;;;;;;;;;-2.10;99.90;;;;;;6156062;23;20366;-85
2022/03/08 06:44:11;;;;;;;10.57;6.68;;;-3.00;99.90;;;;;;6180572;23;19935;-83
2022/03/08 06:46:41;;;;;;;9.75;7.20;;;-2.70;99.90;;;;;;6155813;23;20024;-83
2022/03/08 06:49:08;;;;;;;13.35;8.60;;;-2.90;99.90;;;;;;6164654;23;20051;-86
2022/03/08 06:51:35;;;;;;;11.25;8.45;;;-2.90;99.90;;;;;;6191314;23;20463;-85
2022/03/08 06:54:01;;;;;;;18.25;9.75;;;-2.90;99.90;;;;;;6108843;23;1155650;-86
2022/03/08 06:56:26;;;;;;;;;;;-2.50;99.90;;;;;;6134396;23;20028;-86
2022/03/08 06:58:52;;;;;;;10.75;7.93;;;-2.70;99.90;;;;;;6158298;23;19920;-86
2022/03/08 07:01:18;;;;;;;13.57;7.78;;;-2.60;99.90;;;;;;6183246;23;20021;-86
2022/03/08 07:03:43;;;;;;;;;;;-2.60;99.90;;;;;;6133942;23;20052;-86
2022/03/08 07:06:10;;;;;;;10.63;8.75;;;-2.50;99.90;;;;;;6122560;23;19916;-86
2022/03/08 07:08:37;;;;;;;14.90;8.52;;;-2.30;99.90;;;;;;6175900;23;20052;-86
2022/03/08 07:11:04;;;;;;;10.68;8.48;;;-2.20;99.90;;;;;;6155190;23;20456;-85
2022/03/08 07:13:30;;;;;;;9.32;7.35;;;-2.10;99.90;;;;;;6153949;23;20365;-86
2022/03/08 07:15:56;;;;;;;17.98;8.80;;;-2.00;99.90;;;;;;6180877;23;20027;-86
2022/03/08 07:18:23;;;;;;;15.23;8.18;;;-1.90;99.90;;;;;;6129499;23;20072;-87
2022/03/08 07:20:50;;;;;;;12.25;9.25;;;-1.70;99.90;;;;;;6155571;23;20095;-86
2022/03/08 07:23:16;;;;;;;9.73;7.30;;;-1.60;99.90;;;;;;6131348;23;20025;-86
2022/03/08 07:25:42;;;;;;;11.32;7.95;;;-0.40;99.90;;;;;;6179966;23;20017;-87
2022/03/08 07:28:08;;;;;;;20.27;7.95;;;0.50;99.90;;;;;;6155510;23;20056;-87
2022/03/08 07:30:34;;;;;;;;;;;0.00;99.90;;;;;;6155470;23;20071;-87
2022/03/08 07:32:59;;;;;;;12.85;7.90;;;-1.00;99.90;;;;;;6149632;23;19912;-87
2022/03/08 07:35:25;;;;;;;;;;;-0.90;99.90;;;;;;6131821;23;20112;-87
2022/03/08 07:37:51;;;;;;;12.45;8.52;;;-0.80;99.90;;;;;;6155797;23;20243;-87
2022/03/08 07:40:16;;;;;;;11.63;8.27;;;-0.70;99.90;;;;;;6130272;23;20013;-88
2022/03/08 07:42:42;;;;;;;;;;;-0.60;99.90;;;;;;6179962;23;20543;-87
2022/03/08 07:45:08;;;;;;;16.52;7.93;;;-0.80;99.90;;;;;;6154674;23;20347;-88
2022/03/08 07:47:34;;;;;;;14.75;7.63;;;-0.30;99.90;;;;;;6179887;23;20024;-88
2022/03/08 07:50:00;;;;;;;9.63;6.88;;;-0.20;99.90;;;;;;6179166;23;20380;-87
2022/03/08 07:52:26;;;;;;;11.95;6.90;;;0.40;99.90;;;;;;6157579;23;20079;-87
2022/03/08 07:54:52;;;;;;;16.83;9.18;;;0.00;99.90;;;;;;6160588;23;20023;-87
2022/03/08 07:57:18;;;;;;;;;;;0.20;99.90;;;;;;6189949;23;20071;-88
2022/03/08 07:59:44;;;;;;;13.32;7.95;;;0.30;99.90;;;;;;6155327;23;19920;-87
2022/03/08 08:02:10;;;;;;;15.48;9.02;;;0.50;99.90;;;;;;6181402;23;20044;-87
2022/03/08 08:04:35;;;;;;;17.42;9.52;;;1.80;99.90;;;;;;6130514;23;20017;-87
2022/03/08 08:07:01;;;;;;;16.33;7.38;;;0.80;99.90;;;;;;6180889;23;20048;-87
2022/03/08 08:09:27;;;;;;;13.75;8.07;;;0.90;99.90;;;;;;6156417;23;20052;-87
2022/03/08 08:11:53;;;;;;;14.35;8.00;;;1.10;99.90;;;;;;6156511;23;20079;-88
2022/03/08 08:14:19;;;;;;;14.60;7.97;;;1.20;99.90;;;;;;6155900;23;20021;-87
2022/03/08 08:16:45;;;;;;;14.38;7.70;;;1.40;99.90;;;;;;6180374;23;20021;-87
2022/03/08 08:19:11;;;;;;;13.75;7.25;;;1.50;99.90;;;;;;6132023;23;20499;-86
2022/03/08 08:21:37;;;;;;;;;;;1.70;99.90;;;;;;6180570;23;20048;-87
2022/03/08 08:24:04;;;;;;;8.43;6.47;;;2.00;99.90;;;;;;6179312;23;19927;-86
2022/03/08 08:26:30;;;;;;;10.55;7.13;;;1.90;99.90;;;;;;6179713;23;20071;-88
2022/03/08 08:28:55;;;;;;;14.63;7.65;;;2.00;99.90;;;;;;6183243;23;20080;-88
2022/03/08 08:31:23;;;;;;;15.48;8.20;;;2.30;99.90;;;;;;6142330;23;20025;-87
2022/03/08 08:33:49;;;;;;;11.02;7.03;;;2.20;99.90;;;;;;6187357;23;20075;-87
2022/03/08 08:36:15;;;;;;;10.18;5.93;;;3.40;99.90;;;;;;6190892;23;20020;-86
2022/03/08 08:38:41;;;;;;;9.15;5.82;;;2.60;99.90;;;;;;6199850;23;20025;-88
2022/03/08 08:41:06;;;;;;;10.63;6.95;;;2.60;99.90;;;;;;6135743;23;20317;-87
2022/03/08 08:43:32;;;;;;;12.90;7.18;;;2.80;99.90;;;;;;6157781;23;20021;-86
2022/03/08 08:45:58;;;;;;;9.50;6.97;;;2.90;99.90;;;;;;6158183;23;20013;-85
2022/03/08 08:48:24;;;;;;;13.13;6.57;;;3.00;99.90;;;;;;6182579;23;20025;-87
2022/03/08 08:50:51;;;;;;;11.10;6.20;;;3.20;99.90;;;;;;6182239;23;20252;-88
2022/03/08 08:53:17;;;;;;;11.55;6.85;;;3.30;99.90;;;;;;6158238;23;20036;-87
2022/03/08 08:55:43;;;;;;;14.45;6.78;;;3.40;99.90;;;;;;6184796;23;20046;-88
2022/03/08 08:58:08;;;;;;;12.40;7.00;;;3.80;99.90;;;;;;6160612;23;20021;-88
2022/03/08 09:00:35;;;;;;;14.77;6.85;;;3.70;99.90;;;;;;6183328;23;20028;-87
2022/03/08 09:03:01;;;;;;;8.80;5.85;;;4.00;99.90;;;;;;6161493;23;20017;-86
2022/03/08 09:05:28;;;;;;;11.30;6.43;;;3.90;99.90;;;;;;6192888;23;20025;-88
2022/03/08 09:07:53;;;;;;;10.00;5.85;;;4.10;99.90;;;;;;6118753;23;20013;-88
2022/03/08 09:10:22;;;;;;;11.55;6.60;;;4.40;99.90;;;;;;6190060;23;20461;-87
2022/03/08 09:12:51;;;;;;;12.93;6.45;;;5.00;99.90;;;;;;6148811;23;20025;-88
2022/03/08 09:15:21;;;;;;;10.77;6.90;;;4.30;99.90;;;;;;6196730;23;20068;-86
2022/03/08 09:17:47;;;;;;;9.70;5.82;;;4.40;99.90;;;;;;6145977;23;20069;-88
2022/03/08 09:20:13;;;;;;;;;;;4.50;99.90;;;;;;6145388;23;20017;-90
2022/03/08 09:22:39;;;;;;;8.20;5.05;;;4.60;99.90;;;;;;6172556;23;19912;-88
2022/03/08 09:25:06;;;;;;;8.95;5.82;;;4.70;99.90;;;;;;6146416;23;20048;-89
2022/03/08 09:27:34;;;;;;;7.03;5.45;;;4.80;99.90;;;;;;6174101;23;20017;-87
2022/03/08 09:30:04;;;;;;;8.40;5.32;;;4.90;99.90;;;;;;6151336;23;20020;-87
2022/03/08 09:32:30;;;;;;;10.30;5.85;;;5.00;99.90;;;;;;6172935;23;20037;-88
2022/03/08 09:34:55;;;;;;;13.05;6.15;;;5.10;99.90;;;;;;6195579;23;20049;-87
2022/03/08 09:37:21;;;;;;;11.20;5.35;;;5.20;99.90;;;;;;6193833;23;20021;-88
2022/03/08 09:39:47;;;;;;;12.02;5.68;;;5.20;99.90;;;;;;6164483;23;20021;-88
2022/03/08 09:42:13;;;;;;;9.80;5.40;;;5.40;99.90;;;;;;6188540;23;20013;-87
2022/03/08 09:44:38;;;;;;;7.38;5.70;;;5.40;99.90;;;;;;6161667;23;20056;-87
2022/03/08 09:47:05;;;;;;;9.45;5.82;;;5.40;99.90;;;;;;6160093;23;20068;-89
2022/03/08 09:49:32;;;;;;;10.40;6.25;;;5.50;99.90;;;;;;6181979;23;20027;-86
2022/03/08 09:51:59;;;;;;;14.40;5.97;;;5.60;99.90;;;;;;6180484;23;20512;-86
2022/03/08 09:54:25;;;;;;;7.07;5.25;;;5.60;99.90;;;;;;6133976;23;20056;-87
2022/03/08 09:56:51;;;;;;;9.02;5.78;;;5.70;99.90;;;;;;6182328;23;20017;-86
2022/03/08 09:59:17;;;;;;;10.55;6.45;;;5.80;99.90;;;;;;6189165;23;20384;-85
2022/03/08 10:01:45;;;;;;;11.70;4.80;;;5.80;99.90;;;;;;6156155;23;20024;-86
2022/03/08 10:04:18;;;;;;;10.90;6.13;;;5.90;99.90;;;;;;6181418;23;20021;-86
2022/03/08 10:06:47;;;;;;;11.20;6.43;;;6.00;99.90;;;;;;6157272;23;20017;-85
2022/03/08 10:09:18;;;;;;;11.82;5.75;;;6.00;99.90;;;;;;6157738;23;20028;-86
2022/03/08 10:11:49;;;;;;;11.05;6.57;;;6.10;99.90;;;;;;6180963;23;20017;-85
2022/03/08 10:14:36;;;;;;;8.43;5.38;;;6.20;99.90;;;;;;6181090;23;20025;-88
2022/03/08 10:17:02;;;;;;;;;;;6.30;99.90;;;;;;6184013;23;20409;-85
2022/03/08 10:19:28;;;;;;;8.00;4.97;;;6.40;99.90;;;;;;6187818;23;19969;-86
2022/03/08 10:21:55;;;;;;;9.32;5.63;;;6.50;99.90;;;;;;6155630;23;20445;-86
2022/03/08 10:24:31;;;;;;;9.55;5.72;;;6.60;99.90;;;;;;6180985;23;20393;-85
2022/03/08 10:27:01;;;;;;;8.13;5.68;;;6.70;99.90;;;;;;6180591;23;20023;-85
2022/03/08 10:29:39;;;;;;;9.63;5.35;;;6.70;99.90;;;;;;6156676;23;20344;-85
2022/03/08 10:32:10;;;;;;;7.57;4.75;;;6.80;99.90;;;;;;6181668;23;20100;-85
2022/03/08 10:34:38;;;;;;;7.13;4.88;;;6.90;99.90;;;;;;6180360;23;20025;-85
2022/03/08 10:37:18;;;;;;;11.07;5.18;;;6.90;99.90;;;;;;6156957;23;20459;-86
2022/03/08 10:39:54;;;;;;;8.55;5.03;;;7.00;99.90;;;;;;6156889;23;20068;-86
2022/03/08 10:42:25;;;;;;;7.53;4.38;;;7.00;99.90;;;;;;6181356;23;20023;-86
2022/03/08 10:44:53;;;;;;;8.07;4.95;;;7.10;99.90;;;;;;6155819;23;20117;-86
2022/03/08 10:47:19;;;;;;;9.20;4.60;;;7.20;99.90;;;;;;6156065;23;20025;-86
2022/03/08 10:49:51;;;;;;;11.63;4.78;;;7.90;99.90;;;;;;6154794;23;20028;-86
2022/03/08 10:52:17;;;;;;;8.00;5.07;;;7.40;99.90;;;;;;6179475;23;20096;-86
2022/03/08 10:54:43;;;;;;;;;;;7.50;99.90;;;;;;6156192;23;20045;-86
2022/03/08 10:57:09;;;;;;;9.43;4.43;;;7.50;99.90;;;;;;6209362;23;19923;-85
2022/03/08 10:59:35;;;;;;;7.45;4.55;;;7.60;99.90;;;;;;6165178;23;20115;-86
2022/03/08 11:02:21;;;;;;;;;;;7.70;99.90;;;;;;6180520;23;20040;-85
2022/03/08 11:04:47;;;;;;;7.82;3.83;;;7.70;98.30;;;;;;6177566;23;19919;-87
2022/03/08 11:07:13;;;;;;;7.05;4.10;;;7.90;99.90;;;;;;6179516;23;20092;-86
2022/03/08 11:09:40;;;;;;;9.77;3.78;;;7.90;99.90;;;;;;6179422;23;20029;-87
2022/03/08 11:12:06;;;;;;;5.38;3.50;;;7.90;92.30;;;;;;6179640;23;20448;-86
2022/03/08 11:14:32;;;;;;;;;;;8.00;99.90;;;;;;6179756;23;20059;-85
2022/03/08 11:16:59;;;;;;;6.88;4.32;;;8.00;98.50;;;;;;6178993;23;19916;-85
2022/03/08 11:19:26;;;;;;;6.80;4.15;;;8.10;98.30;;;;;;6178693;23;20067;-86
2022/03/08 11:21:54;;;;;;;6.97;4.07;;;8.10;98.50;;;;;;6153938;23;20021;-86
2022/03/08 11:24:21;;;;;;;7.15;4.25;;;8.20;98.30;;;;;;6178925;23;20401;-85
2022/03/08 11:26:48;;;;;;;4.70;3.55;;;8.20;97.30;;;;;;6178948;23;20025;-85
2022/03/08 11:29:15;;;;;;;6.03;4.63;;;8.30;98.60;;;;;;6182240;23;20025;-86
2022/03/08 11:31:44;;;;;;;7.93;3.35;;;8.40;93.30;;;;;;6154262;23;20029;-86
2022/03/08 11:34:13;;;;;;;6.45;3.97;;;8.50;93.40;;;;;;6177931;23;20352;-86
2022/03/08 11:36:51;;;;;;;7.85;4.10;;;8.50;93.50;;;;;;6178962;23;20340;-84
2022/03/08 11:39:24;;;;;;;5.43;4.03;;;8.60;94.00;;;;;;6179485;23;20345;-86
2022/03/08 11:41:53;;;;;;;8.82;4.63;;;8.60;93.50;;;;;;6178969;23;20455;-86
2022/03/08 11:44:27;;;;;;;5.68;3.90;;;8.60;92.50;;;;;;6179581;23;20028;-84
2022/03/08 11:47:04;;;;;;;6.82;3.58;;;8.70;90.80;;;;;;6178396;23;20107;-85
2022/03/08 11:49:46;;;;;;;6.55;3.42;;;8.70;88.60;;;;;;6177669;23;20024;-85
2022/03/08 11:52:18;;;;;;;6.55;3.53;;;8.70;89.10;;;;;;6178426;23;20083;-85
2022/03/08 11:55:13;;;;;;;5.22;3.63;;;8.60;88.60;;;;;;6178953;23;20028;-85
2022/03/08 11:57:48;;;;;;;12.95;4.25;;;8.70;85.70;;;;;;6147681;23;20024;-85
2022/03/08 12:00:20;;;;;;;6.43;3.90;;;8.70;79.80;;;;;;6180293;23;20044;-86
2022/03/08 12:02:48;;;;;;;7.07;4.18;;;8.70;86.70;;;;;;6163034;23;20031;-84
2022/03/08 12:05:43;;;;;;;5.47;3.33;;;8.80;88.80;;;;;;6183035;23;20725;-85
2022/03/08 12:08:27;;;;;;;6.22;4.18;;;8.90;86.20;;;;;;6172080;23;20091;-86
2022/03/08 12:11:00;;;;;;;4.95;3.33;;;9.00;86.40;;;;;;6153444;23;20017;-85
2022/03/08 12:13:34;;;;;;;6.40;4.05;;;9.10;89.70;;;;;;6179879;23;20029;-85
2022/03/08 12:16:09;;;;;;;5.35;3.40;;;9.30;84.70;;;;;;6138071;23;20111;-86
2022/03/08 12:18:40;;;;;;;6.70;3.80;;;9.40;79.50;;;;;;6180961;23;20028;-86
2022/03/08 12:21:29;;;;;;;4.70;3.45;;;9.40;86.40;;;;;;6153236;23;20290;-86
2022/03/08 12:24:09;;;;;;;10.40;4.90;;;9.50;82.90;;;;;;6161828;23;20021;-86
2022/03/08 12:26:48;;;;;;;8.63;3.70;;;9.60;81.20;;;;;;6155627;23;20020;-85
2022/03/08 12:29:25;;;;;;;6.53;3.88;;;9.60;84.70;;;;;;6181154;23;20031;-87
2022/03/08 12:31:57;;;;;;;6.38;3.67;;;9.60;81.30;;;;;;6199296;23;20009;-85
2022/03/08 12:34:43;;;;;;;6.82;3.10;;;9.70;85.20;;;;;;6183092;23;20013;-84
2022/03/08 12:37:15;;;;;;;5.22;3.45;;;9.80;82.50;;;;;;6178627;23;20452;-85
2022/03/08 12:39:47;;;;;;;5.45;3.10;;;9.80;83.80;;;;;;6195047;23;20033;-87
2022/03/08 12:42:19;;;;;;;6.15;3.10;;;9.90;84.80;;;;;;6176814;23;20025;-86
2022/03/08 12:44:56;;;;;;;5.38;3.90;;;9.90;83.20;;;;;;6156585;23;20017;-85
2022/03/08 12:47:22;;;;;;;3.65;2.40;;;10.00;74.40;;;;;;6179534;23;20445;-85
2022/03/08 12:49:48;;;;;;;4.13;3.00;;;10.00;80.40;;;;;;6177085;23;20236;-86
2022/03/08 12:52:15;;;;;;;;;;;10.00;79.90;;;;;;6129155;23;20441;-87
2022/03/08 12:54:43;;;;;;;5.28;3.05;;;10.10;77.00;;;;;;6185021;23;20304;-85
2022/03/08 12:57:10;;;;;;;6.18;3.75;;;10.10;75.40;;;;;;6180733;23;20320;-87
2022/03/08 12:59:51;;;;;;;5.10;2.67;;;10.10;79.00;;;;;;6153404;23;20364;-86
2022/03/08 13:02:19;;;;;;;7.47;2.85;;;10.20;78.40;;;;;;6178536;23;20072;-86
2022/03/08 13:04:47;;;;;;;6.78;3.28;;;10.40;79.70;;;;;;6177403;23;20353;-87
2022/03/08 13:07:15;;;;;;;6.07;3.22;;;10.40;76.00;;;;;;6178420;23;20465;-86